Time,TemperatureF,DewpointF,PressureIn,WindDirection,WindDirectionDegrees,WindSpeedMPH,WindSpeedGustMPH,Humidity,HourlyPrecipIn,Conditions,Clouds,dailyrainin,SoftwareType,DateUTC
2013-07-01 00:13:00,66.7,38.9,29.51,NNW,337,0.0,-999.0,36,-99.99,,,0.00,Acu-Link.com,2013-07-01 05:13:00,
2013-07-01 00:28:00,66.9,39.8,29.51,NNW,337,0.0,-999.0,37,-99.99,,,0.00,Acu-Link.com,2013-07-01 05:28:00,
2013-07-01 00:43:00,66.7,40.3,29.52,NNW,337,0.0,-999.0,38,-99.99,,,0.00,Acu-Link.com,2013-07-01 05:43:00,
2013-07-01 00:59:00,66.4,42.0,29.50,NNW,337,0.0,-999.0,41,-99.99,,,0.00,Acu-Link.com,2013-07-01 05:59:00,
2013-07-01 01:14:00,66.4,42.6,29.51,NNW,337,0.0,-999.0,42,-99.99,,,0.00,Acu-Link.com,2013-07-01 06:14:00,
2013-07-01 01:29:00,66.6,42.8,29.51,NNW,337,0.0,-999.0,42,-99.99,,,0.00,Acu-Link.com,2013-07-01 06:29:00,
2013-07-01 01:44:00,66.6,43.4,29.51,NNW,337,0.0,-999.0,43,-99.99,,,0.00,Acu-Link.com,2013-07-01 06:44:00,
2013-07-01 01:59:00,66.4,43.2,29.51,NNW,337,0.0,-999.0,43,-99.99,,,0.00,Acu-Link.com,2013-07-01 06:59:00,
2013-07-01 02:14:00,66.6,43.4,29.50,NNW,337,0.0,-999.0,43,-99.99,,,0.00,Acu-Link.com,2013-07-01 07:14:00,
2013-07-01 02:29:00,66.4,45.0,29.50,NNW,337,0.0,-999.0,46,-99.99,,,0.00,Acu-Link.com,2013-07-01 07:29:00,
2013-07-01 02:44:00,66.4,45.0,29.50,NNW,337,0.0,-999.0,46,-99.99,,,0.00,Acu-Link.com,2013-07-01 07:44:00,
2013-07-01 02:59:00,66.4,45.0,29.50,NNW,337,0.0,-999.0,46,-99.99,,,0.00,Acu-Link.com,2013-07-01 07:59:00,
2013-07-01 03:15:00,66.4,45.0,29.49,NNW,337,0.0,-999.0,46,-99.99,,,0.00,Acu-Link.com,2013-07-01 08:15:00,
2013-07-01 03:30:00,66.4,46.1,29.50,NNW,337,2.2,-999.0,48,-99.99,,,0.00,Acu-Link.com,2013-07-01 08:30:00,
2013-07-01 03:45:00,66.2,45.9,29.50,NNW,337,0.0,-999.0,48,-99.99,,,0.00,Acu-Link.com,2013-07-01 08:45:00,
2013-07-01 04:00:00,66.2,45.9,29.50,NNW,337,0.0,-999.0,48,-99.99,,,0.00,Acu-Link.com,2013-07-01 09:00:00,
2013-07-01 04:16:00,66.4,46.1,29.51,NNW,337,0.0,-999.0,48,-99.99,,,0.00,Acu-Link.com,2013-07-01 09:16:00,
2013-07-01 04:31:00,66.6,46.3,29.51,NNW,337,0.0,-999.0,48,-99.99,,,0.00,Acu-Link.com,2013-07-01 09:31:00,
2013-07-01 04:46:00,66.7,45.8,29.51,NNW,337,1.1,-999.0,47,-99.99,,,0.00,Acu-Link.com,2013-07-01 09:46:00,
2013-07-01 05:01:00,66.9,46.0,29.52,North,0,0.0,-999.0,47,-99.99,,,0.00,Acu-Link.com,2013-07-01 10:01:00,
2013-07-01 05:16:00,66.9,44.9,29.52,NNW,337,0.0,-999.0,45,-99.99,,,0.00,Acu-Link.com,2013-07-01 10:16:00,
2013-07-01 05:31:00,66.9,45.4,29.53,NNW,337,0.0,-999.0,46,-99.99,,,0.00,Acu-Link.com,2013-07-01 10:31:00,
2013-07-01 05:46:00,66.9,44.9,29.55,NNW,337,0.0,-999.0,45,-99.99,,,0.00,Acu-Link.com,2013-07-01 10:46:00,
2013-07-01 06:01:00,67.1,45.0,29.53,NNW,337,0.0,-999.0,45,-99.99,,,0.01,Acu-Link.com,2013-07-01 11:01:00,
2013-07-01 06:16:00,67.3,45.8,29.54,NNW,337,0.0,-999.0,46,-99.99,,,0.02,Acu-Link.com,2013-07-01 11:16:00,
2013-07-01 06:32:00,67.5,46.6,29.55,NNW,337,0.0,-999.0,47,-99.99,,,0.02,Acu-Link.com,2013-07-01 11:32:00,
2013-07-01 06:47:00,67.6,47.2,29.54,NNW,337,0.0,-999.0,48,-99.99,,,0.02,Acu-Link.com,2013-07-01 11:47:00,
2013-07-01 07:02:00,67.6,46.6,29.54,NNW,337,0.0,-999.0,47,-99.99,,,0.02,Acu-Link.com,2013-07-01 12:02:00,
2013-07-01 07:17:00,67.8,46.8,29.55,NNW,337,0.0,-999.0,47,-99.99,,,0.02,Acu-Link.com,2013-07-01 12:17:00,
2013-07-01 07:32:00,68.4,43.8,29.55,NNW,337,0.0,-999.0,41,-99.99,,,0.02,Acu-Link.com,2013-07-01 12:32:00,
2013-07-01 07:47:00,69.6,24.2,29.57,NNW,337,0.0,-999.0,18,-99.99,,,0.02,Acu-Link.com,2013-07-01 12:47:00,
2013-07-01 08:02:00,69.4,49.9,29.56,NNW,337,0.0,-999.0,50,-99.99,,,0.02,Acu-Link.com,2013-07-01 13:02:00,
2013-07-01 08:17:00,70.3,69.7,29.57,NNW,337,0.0,-999.0,98,-99.99,,,0.02,Acu-Link.com,2013-07-01 13:17:00,
2013-07-01 08:32:00,72.5,71.9,29.57,NNW,337,0.0,-999.0,98,-99.99,,,0.02,Acu-Link.com,2013-07-01 13:32:00,
2013-07-01 08:47:00,72.7,72.4,29.56,NNW,337,0.0,-999.0,99,-99.99,,,0.02,Acu-Link.com,2013-07-01 13:47:00,
2013-07-01 09:03:00,71.8,71.2,29.56,NNW,337,0.0,-999.0,98,-99.99,,,0.02,Acu-Link.com,2013-07-01 14:03:00,
2013-07-01 09:18:00,72.1,71.5,29.56,NNW,337,0.0,-999.0,98,-99.99,,,0.02,Acu-Link.com,2013-07-01 14:18:00,
2013-07-01 09:33:00,72.5,71.9,29.55,NNW,337,0.0,-999.0,98,-99.99,,,0.02,Acu-Link.com,2013-07-01 14:33:00,
2013-07-01 09:48:00,73.4,72.8,29.56,NNW,337,0.0,-999.0,98,-99.99,,,0.02,Acu-Link.com,2013-07-01 14:48:00,
2013-07-01 10:03:00,74.3,74.0,29.55,NNW,337,0.0,-999.0,99,-99.99,,,0.02,Acu-Link.com,2013-07-01 15:03:00,
2013-07-01 10:18:00,74.3,74.0,29.55,NNW,337,0.0,-999.0,99,-99.99,,,0.02,Acu-Link.com,2013-07-01 15:18:00,
2013-07-01 10:33:00,75.4,75.1,29.56,NNW,337,0.0,-999.0,99,-99.99,,,0.02,Acu-Link.com,2013-07-01 15:33:00,
2013-07-01 10:48:00,73.9,73.6,29.56,South,180,0.0,-999.0,99,-99.99,,,0.02,Acu-Link.com,2013-07-01 15:48:00,
2013-07-01 11:03:00,70.2,49.6,29.55,SE,135,0.0,-999.0,48,-99.99,,,0.02,Acu-Link.com,2013-07-01 16:03:00,
2013-07-01 11:19:00,69.4,36.6,29.55,SSE,157,0.0,-999.0,30,-99.99,,,0.02,Acu-Link.com,2013-07-01 16:19:00,
2013-07-01 11:34:00,70.0,36.3,29.55,ESE,112,0.0,-999.0,29,-99.99,,,0.02,Acu-Link.com,2013-07-01 16:34:00,
2013-07-01 11:49:00,71.1,66.4,29.56,ESE,112,0.0,-999.0,85,-99.99,,,0.02,Acu-Link.com,2013-07-01 16:49:00,
2013-07-01 12:04:00,72.7,70.2,29.55,West,270,0.0,-999.0,92,-99.99,,,0.02,Acu-Link.com,2013-07-01 17:04:00,
2013-07-01 12:19:00,73.2,72.6,29.55,West,270,0.0,-999.0,98,-99.99,,,0.02,Acu-Link.com,2013-07-01 17:19:00,
2013-07-01 12:34:00,71.4,24.3,29.55,West,270,0.0,-999.0,17,-99.99,,,0.02,Acu-Link.com,2013-07-01 17:34:00,
2013-07-01 12:49:00,71.2,34.6,29.55,West,270,0.0,-999.0,26,-99.99,,,0.02,Acu-Link.com,2013-07-01 17:49:00,
2013-07-01 13:04:00,70.0,30.5,29.56,West,270,0.0,-999.0,23,-99.99,,,0.02,Acu-Link.com,2013-07-01 18:04:00,
2013-07-01 13:19:00,69.1,35.5,29.55,West,270,1.1,-999.0,29,-99.99,,,0.02,Acu-Link.com,2013-07-01 18:19:00,
2013-07-01 13:35:00,69.1,32.8,29.55,West,270,0.0,-999.0,26,-99.99,,,0.02,Acu-Link.com,2013-07-01 18:35:00,
2013-07-01 13:50:00,69.8,36.1,29.55,West,270,0.0,-999.0,29,-99.99,,,0.02,Acu-Link.com,2013-07-01 18:50:00,
2013-07-01 14:05:00,70.3,23.4,29.56,WNW,292,1.1,-999.0,17,-99.99,,,0.02,Acu-Link.com,2013-07-01 19:05:00,
2013-07-01 14:20:00,70.0,63.9,29.58,NW,315,2.7,-999.0,81,-99.99,,,0.02,Acu-Link.com,2013-07-01 19:20:00,
2013-07-01 14:35:00,70.5,56.4,29.57,ENE,67,0.0,-999.0,61,-99.99,,,0.02,Acu-Link.com,2013-07-01 19:35:00,
2013-07-01 14:50:00,70.5,69.9,29.56,NE,45,3.7,-999.0,98,-99.99,,,0.02,Acu-Link.com,2013-07-01 19:50:00,
2013-07-01 15:05:00,70.3,69.7,29.54,West,270,4.2,-999.0,98,-99.99,,,0.02,Acu-Link.com,2013-07-01 20:05:00,
2013-07-01 15:20:00,70.3,69.7,29.52,WNW,292,3.7,-999.0,98,-99.99,,,0.02,Acu-Link.com,2013-07-01 20:20:00,
2013-07-01 15:35:00,73.0,72.4,29.52,West,270,0.0,-999.0,98,-99.99,,,0.02,Acu-Link.com,2013-07-01 20:35:00,
2013-07-01 15:51:00,73.8,73.5,29.54,WSW,247,2.7,-999.0,99,-99.99,,,0.02,Acu-Link.com,2013-07-01 20:51:00,
2013-07-01 16:06:00,73.0,72.7,29.56,West,270,3.2,-999.0,99,-99.99,,,0.02,Acu-Link.com,2013-07-01 21:06:00,
2013-07-01 16:21:00,73.0,72.7,29.57,NW,315,2.2,-999.0,99,-99.99,,,0.02,Acu-Link.com,2013-07-01 21:21:00,
2013-07-01 16:36:00,72.7,72.4,29.56,WNW,292,7.3,-999.0,99,-99.99,,,0.02,Acu-Link.com,2013-07-01 21:36:00,
2013-07-01 16:51:00,72.7,72.4,29.57,WNW,292,1.7,-999.0,99,-99.99,,,0.02,Acu-Link.com,2013-07-01 21:51:00,
2013-07-01 17:06:00,72.9,72.6,29.57,NE,45,4.7,-999.0,99,-99.99,,,0.02,Acu-Link.com,2013-07-01 22:06:00,
2013-07-01 17:22:00,73.4,73.1,29.57,NNW,337,0.0,-999.0,99,-99.99,,,0.02,Acu-Link.com,2013-07-01 22:22:00,
2013-07-01 17:37:00,73.8,73.5,29.56,SSE,157,2.7,-999.0,99,-99.99,,,0.02,Acu-Link.com,2013-07-01 22:37:00,
2013-07-01 17:52:00,74.3,74.0,29.57,NE,45,3.7,-999.0,99,-99.99,,,0.02,Acu-Link.com,2013-07-01 22:52:00,
2013-07-01 18:07:00,75.2,74.9,29.57,West,270,3.7,-999.0,99,-99.99,,,0.02,Acu-Link.com,2013-07-01 23:07:00,
2013-07-01 18:22:00,74.3,74.0,29.59,East,90,1.7,-999.0,99,-99.99,,,0.02,Acu-Link.com,2013-07-01 23:22:00,
2013-07-01 18:37:00,75.7,75.4,29.59,WNW,292,3.2,-999.0,99,-99.99,,,0.02,Acu-Link.com,2013-07-01 23:37:00,
2013-07-01 18:52:00,74.8,74.5,29.59,ESE,112,0.0,-999.0,99,-99.99,,,0.02,Acu-Link.com,2013-07-01 23:52:00,
2013-07-01 19:07:00,74.1,73.8,29.59,West,270,0.0,-999.0,99,-99.99,,,0.02,Acu-Link.com,2013-07-02 00:07:00,
2013-07-01 19:22:00,72.5,72.2,29.58,NW,315,1.1,-999.0,99,-99.99,,,0.02,Acu-Link.com,2013-07-02 00:22:00,
2013-07-01 19:37:00,71.2,70.9,29.58,West,270,0.0,-999.0,99,-99.99,,,0.02,Acu-Link.com,2013-07-02 00:37:00,
2013-07-01 19:53:00,70.2,69.9,29.59,West,270,0.0,-999.0,99,-99.99,,,0.02,Acu-Link.com,2013-07-02 00:53:00,
2013-07-01 20:08:00,69.4,69.1,29.60,West,270,0.0,-999.0,99,-99.99,,,0.02,Acu-Link.com,2013-07-02 01:08:00,
2013-07-01 20:23:00,69.1,68.8,29.61,WNW,292,2.7,-999.0,99,-99.99,,,0.02,Acu-Link.com,2013-07-02 01:23:00,
2013-07-01 20:38:00,68.4,48.5,29.61,West,270,2.7,-999.0,49,-99.99,,,0.02,Acu-Link.com,2013-07-02 01:38:00,
2013-07-01 20:53:00,67.8,11.4,29.59,West,270,0.0,-999.0,11,-99.99,,,0.02,Acu-Link.com,2013-07-02 01:53:00,
2013-07-01 21:08:00,66.7,32.6,29.60,West,270,0.0,-999.0,28,-99.99,,,0.02,Acu-Link.com,2013-07-02 02:08:00,
2013-07-01 21:23:00,66.2,31.2,29.60,West,270,0.0,-999.0,27,-99.99,,,0.02,Acu-Link.com,2013-07-02 02:23:00,
2013-07-01 21:38:00,65.1,29.4,29.60,West,270,0.0,-999.0,26,-99.99,,,0.02,Acu-Link.com,2013-07-02 02:38:00,
2013-07-01 21:53:00,64.9,35.1,29.60,West,270,0.0,-999.0,33,-99.99,,,0.02,Acu-Link.com,2013-07-02 02:53:00,
2013-07-01 22:09:00,64.9,36.6,29.59,West,270,0.0,-999.0,35,-99.99,,,0.02,Acu-Link.com,2013-07-02 03:09:00,
2013-07-01 22:24:00,65.5,44.2,29.60,West,270,0.0,-999.0,46,-99.99,,,0.02,Acu-Link.com,2013-07-02 03:24:00,
2013-07-01 22:39:00,65.3,44.5,29.60,West,270,0.0,-999.0,47,-99.99,,,0.02,Acu-Link.com,2013-07-02 03:39:00,
2013-07-01 22:54:00,65.7,45.5,29.61,West,270,0.0,-999.0,48,-99.99,,,0.02,Acu-Link.com,2013-07-02 03:54:00,
2013-07-01 23:09:00,66.0,45.7,29.61,West,270,0.0,-999.0,48,-99.99,,,0.02,Acu-Link.com,2013-07-02 04:09:00,
2013-07-01 23:24:00,66.0,45.7,29.62,West,270,0.0,-999.0,48,-99.99,,,0.02,Acu-Link.com,2013-07-02 04:24:00,
2013-07-01 23:39:00,66.0,45.7,29.62,West,270,0.0,-999.0,48,-99.99,,,0.02,Acu-Link.com,2013-07-02 04:39:00,
2013-07-01 23:54:00,65.8,45.6,29.62,West,270,0.0,-999.0,48,-99.99,,,0.02,Acu-Link.com,2013-07-02 04:54:00,